Time;durP1;ratioP1;P1;durP2;ratioP2;P2;SDS_P1;SDS_P2;PMS_P1;PMS_P2;Temp;Humidity;BMP_temperature;BMP_pressure;BME280_temperature;BME280_humidity;BME280_pressure;Samples;Min_cycle;Max_cycle;Signal;HPM_P1;HPM_P2
2023/08/24 00:00:23;;;;;;;0.40;0.40;;;;;;;12.22;100.00;98739.03;5091428;28;20052;-84
2023/08/24 00:02:50;;;;;;;0.50;0.50;;;;;;;12.15;100.00;98730.34;5091642;28;20048;-86
2023/08/24 00:05:18;;;;;;;0.60;0.60;;;;;;;12.25;100.00;98752.03;5058546;28;20086;-86
2023/08/24 00:07:45;;;;;;;0.50;0.50;;;;;;;12.34;100.00;98738.84;5094220;28;20052;-85
2023/08/24 00:10:17;;;;;;;0.40;0.40;;;;;;;12.43;100.00;98750.81;5095068;28;20067;-86
2023/08/24 00:12:45;;;;;;;0.50;0.50;;;;;;;12.45;100.00;98740.50;5092321;28;20048;-86
2023/08/24 00:15:12;;;;;;;0.50;0.50;;;;;;;12.60;100.00;98742.47;5093111;28;20048;-85
2023/08/24 00:17:39;;;;;;;0.50;0.50;;;;;;;12.67;100.00;98753.06;5091488;28;20052;-86
2023/08/24 00:20:10;;;;;;;0.50;0.50;;;;;;;12.72;100.00;98751.19;5091534;28;20062;-86
2023/08/24 00:22:39;;;;;;;0.50;0.50;;;;;;;12.74;100.00;98757.16;5091034;28;20558;-85
2023/08/24 00:25:07;;;;;;;0.50;0.50;;;;;;;12.66;100.00;98743.31;5073134;28;20071;-85
2023/08/24 00:27:35;;;;;;;0.50;0.50;;;;;;;12.77;100.00;98758.53;5089977;28;20601;-84
2023/08/24 00:30:04;;;;;;;0.50;0.50;;;;;;;12.71;100.00;98743.31;5048790;28;20058;-86
2023/08/24 00:32:34;;;;;;;0.50;0.50;;;;;;;12.90;100.00;98762.66;5070916;28;20072;-86
2023/08/24 00:35:06;;;;;;;0.50;0.50;;;;;;;12.84;100.00;98747.44;5037193;28;20392;-84
2023/08/24 00:37:34;;;;;;;0.50;0.50;;;;;;;12.92;100.00;98752.38;5053537;28;20048;-85
2023/08/24 00:40:04;;;;;;;0.50;0.50;;;;;;;12.97;100.00;98764.03;5052869;28;20110;-85
2023/08/24 00:42:32;;;;;;;0.50;0.50;;;;;;;12.93;100.00;98760.22;5035789;28;20048;-85
2023/08/24 00:44:59;;;;;;;0.50;0.50;;;;;;;12.81;100.00;98748.78;5070205;28;20072;-85
2023/08/24 00:47:26;;;;;;;0.50;0.50;;;;;;;12.70;100.00;98739.00;5036162;28;20530;-85
2023/08/24 00:49:54;;;;;;;0.40;0.40;;;;;;;12.79;100.00;98761.78;5019984;28;20469;-86
2023/08/24 00:52:21;;;;;;;0.50;0.50;;;;;;;12.75;100.00;98766.09;5070720;28;20044;-86
2023/08/24 00:54:50;;;;;;;0.40;0.40;;;;;;;12.64;100.00;98753.63;5036724;28;20113;-86
2023/08/24 00:57:18;;;;;;;0.50;0.50;;;;;;;12.50;100.00;98737.81;5052720;28;20063;-86
2023/08/24 00:59:46;;;;;;;0.50;0.50;;;;;;;12.51;100.00;98749.50;5052340;28;20052;-86
2023/08/24 01:02:13;;;;;;;0.40;0.40;;;;;;;12.60;100.00;98752.50;5052315;28;20147;-86
2023/08/24 01:04:43;;;;;;;0.50;0.50;;;;;;;12.65;100.00;98760.66;5070407;28;20056;-85
2023/08/24 01:07:11;;;;;;;0.50;0.50;;;;;;;12.69;100.00;98757.16;5052115;28;20044;-86
2023/08/24 01:09:38;;;;;;;0.50;0.50;;;;;;;12.57;100.00;98737.59;5035817;28;20234;-85
2023/08/24 01:12:16;;;;;;;0.50;0.50;;;;;;;12.78;100.00;98765.56;5035777;28;20495;-85
2023/08/24 01:15:09;;;;;;;0.43;0.43;;;;;;;12.71;100.00;98756.88;5070227;28;20056;-86
2023/08/24 01:17:39;;;;;;;0.50;0.50;;;;;;;12.48;100.00;98748.13;5052418;28;20106;-86
2023/08/24 01:20:09;;;;;;;0.50;0.50;;;;;;;12.40;100.00;98743.19;5052420;28;20063;-85
2023/08/24 01:23:04;;;;;;;0.50;0.50;;;;;;;12.45;100.00;98756.75;5020254;28;20446;-86
2023/08/24 01:25:53;;;;;;;0.50;0.50;;;;;;;12.53;100.00;98764.41;5053310;28;20056;-86
2023/08/24 01:28:21;;;;;;;0.40;0.40;;;;;;;12.36;100.00;98747.53;5052363;28;20056;-86
2023/08/24 01:30:49;;;;;;;0.50;0.50;;;;;;;12.49;100.00;98763.28;5052780;28;20056;-86
2023/08/24 01:33:16;;;;;;;0.43;0.43;;;;;;;12.52;100.00;98759.22;5070270;28;20045;-86
2023/08/24 01:35:43;;;;;;;0.50;0.50;;;;;;;12.65;100.00;98771.47;5070380;28;20048;-85
2023/08/24 01:38:13;;;;;;;0.50;0.50;;;;;;;12.57;100.00;98767.38;5069881;28;20503;-86
2023/08/24 01:41:02;;;;;;;0.40;0.40;;;;;;;12.63;100.00;98757.38;5036542;28;20721;-85
2023/08/24 01:43:33;;;;;;;0.50;0.50;;;;;;;12.52;100.00;98757.34;5070484;28;20132;-85
2023/08/24 01:46:14;;;;;;;0.40;0.40;;;;;;;12.33;100.00;98740.75;5054500;28;20048;-86
2023/08/24 01:48:44;;;;;;;0.50;0.50;;;;;;;12.55;100.00;98764.91;5037141;28;20128;-85
2023/08/24 01:51:12;;;;;;;0.50;0.50;;;;;;;12.62;100.00;98761.19;5052570;28;20053;-86
2023/08/24 01:53:40;;;;;;;0.50;0.50;;;;;;;12.69;100.00;98753.63;5036193;28;20419;-85
2023/08/24 01:56:15;;;;;;;0.40;0.40;;;;;;;12.71;100.00;98749.59;5055794;28;20061;-85
2023/08/24 01:58:42;;;;;;;0.40;0.40;;;;;;;12.87;100.00;98760.47;5055677;28;20052;-85
2023/08/24 02:01:10;;;;;;;0.50;0.50;;;;;;;12.85;100.00;98759.91;5055427;28;20055;-86
2023/08/24 02:03:39;;;;;;;0.50;0.50;;;;;;;12.58;100.00;98740.06;5056102;28;20044;-85
2023/08/24 02:06:08;;;;;;;0.50;0.50;;;;;;;12.68;100.00;98751.97;5055921;28;20057;-86
2023/08/24 02:08:35;;;;;;;0.40;0.40;;;;;;;12.62;100.00;98755.75;5055682;28;20116;-86
2023/08/24 02:11:03;;;;;;;0.45;0.45;;;;;;;12.59;100.00;98759.81;5072899;28;20048;-86
2023/08/24 02:13:32;;;;;;;0.50;0.50;;;;;;;12.45;100.00;98732.38;5055395;28;20052;-87
2023/08/24 02:16:04;;;;;;;0.40;0.40;;;;;;;12.61;100.00;98748.69;5055213;28;20112;-86
2023/08/24 02:18:32;;;;;;;0.50;0.50;;;;;;;12.68;100.00;98758.22;5073002;28;20052;-85
2023/08/24 02:20:59;;;;;;;0.50;0.50;;;;;;;12.56;100.00;98741.41;5055178;28;20102;-85
2023/08/24 02:23:27;;;;;;;0.45;0.45;;;;;;;12.67;100.00;98759.31;5073157;28;20060;-84
2023/08/24 02:25:56;;;;;;;0.40;0.40;;;;;;;12.55;100.00;98747.88;5072814;28;20094;-85
2023/08/24 02:28:24;;;;;;;0.40;0.40;;;;;;;12.53;100.00;98755.44;5055272;28;20059;-86
2023/08/24 02:30:51;;;;;;;0.47;0.47;;;;;;;12.52;100.00;98768.16;5073061;28;20055;-85
2023/08/24 02:33:18;;;;;;;0.50;0.50;;;;;;;12.52;100.00;98772.75;5038528;28;20580;-86
2023/08/24 02:35:49;;;;;;;0.40;0.40;;;;;;;12.39;100.00;98760.50;5055546;28;20055;-85
2023/08/24 02:38:16;;;;;;;0.50;0.50;;;;;;;12.48;100.00;98771.66;5072433;28;20048;-85
2023/08/24 02:40:44;;;;;;;0.50;0.50;;;;;;;12.46;100.00;98773.81;5055201;28;20098;-86
2023/08/24 02:43:12;;;;;;;0.50;0.50;;;;;;;12.47;100.00;98765.44;5054643;28;20045;-86
2023/08/24 02:45:40;;;;;;;0.50;0.50;;;;;;;12.35;100.00;98771.03;5055332;28;20382;-86
2023/08/24 02:48:07;;;;;;;0.50;0.50;;;;;;;12.49;100.00;98776.81;5072437;28;20515;-83
2023/08/24 02:50:34;;;;;;;0.50;0.50;;;;;;;12.46;100.00;98773.81;5055083;28;20083;-85
2023/08/24 02:53:02;;;;;;;0.50;0.50;;;;;;;12.39;100.00;98760.50;5053930;28;20098;-85
2023/08/24 02:55:32;;;;;;;0.50;0.50;;;;;;;12.45;100.00;98773.00;5052759;28;20064;-86
2023/08/24 02:57:59;;;;;;;0.50;0.50;;;;;;;12.39;100.00;98760.50;5052216;28;20408;-85
2023/08/24 03:00:26;;;;;;;0.50;0.50;;;;;;;12.44;100.00;98759.75;5037637;28;20052;-85
2023/08/24 03:02:54;;;;;;;0.40;0.40;;;;;;;12.42;100.00;98759.19;5065350;28;20045;-87
2023/08/24 03:05:21;;;;;;;0.50;0.50;;;;;;;12.55;100.00;98773.03;5017033;28;20099;-86
2023/08/24 03:07:49;;;;;;;0.35;0.35;;;;;;;12.58;100.00;98780.66;5034495;28;20053;-87
2023/08/24 03:10:16;;;;;;;0.50;0.50;;;;;;;12.63;100.00;98774.44;5034162;28;20069;-86
2023/08/24 03:12:44;;;;;;;0.50;0.50;;;;;;;12.54;100.00;98755.19;5034542;28;20051;-85
2023/08/24 03:15:12;;;;;;;0.50;0.50;;;;;;;12.57;100.00;98770.09;5051725;28;20147;-85
2023/08/24 03:17:39;;;;;;;0.50;0.50;;;;;;;12.59;100.00;98770.63;5034379;28;20041;-83
2023/08/24 03:20:07;;;;;;;0.50;0.50;;;;;;;12.70;100.00;98777.72;5033823;28;20167;-85
2023/08/24 03:22:34;;;;;;;0.50;0.50;;;;;;;12.68;100.00;98774.44;5034205;28;20059;-86
2023/08/24 03:25:02;;;;;;;0.40;0.40;;;;;;;12.73;100.00;98784.50;5051522;28;20053;-85
2023/08/24 03:27:30;;;;;;;0.40;0.40;;;;;;;12.61;100.00;98771.19;5045242;28;20091;-86
2023/08/24 03:29:58;;;;;;;0.50;0.50;;;;;;;12.56;100.00;98780.09;5055776;28;20086;-85
2023/08/24 03:32:26;;;;;;;0.50;0.50;;;;;;;12.70;100.00;98790.44;5052015;28;20048;-85
2023/08/24 03:34:58;;;;;;;0.50;0.50;;;;;;;12.55;100.00;98764.13;5045218;28;20048;-85
2023/08/24 03:37:26;;;;;;;0.50;0.50;;;;;;;12.57;100.00;98770.09;5041451;28;20045;-85
2023/08/24 03:39:53;;;;;;;0.40;0.40;;;;;;;12.82;100.00;98796.47;5065280;28;20066;-84
2023/08/24 03:42:20;;;;;;;0.50;0.50;;;;;;;12.74;100.00;98775.31;5049196;28;20044;-84
2023/08/24 03:44:47;;;;;;;0.50;0.50;;;;;;;12.77;100.00;98774.78;5062263;28;20201;-85
2023/08/24 03:47:15;;;;;;;0.50;0.50;;;;;;;12.88;100.00;98775.63;5041214;28;20055;-85
2023/08/24 03:49:44;;;;;;;0.50;0.50;;;;;;;13.04;100.00;98793.59;5030424;28;20076;-84
2023/08/24 03:52:11;;;;;;;0.50;0.50;;;;;;;12.91;100.00;98773.22;5026308;28;20049;-83
2023/08/24 03:54:41;;;;;;;0.50;0.50;;;;;;;13.11;100.00;98793.31;5041620;28;20066;-84
2023/08/24 03:57:08;;;;;;;0.50;0.50;;;;;;;13.10;100.00;98789.78;5079460;28;20053;-88
2023/08/24 03:59:35;;;;;;;0.50;0.50;;;;;;;13.16;100.00;98798.75;5050517;28;20111;-90
2023/08/24 04:02:03;;;;;;;0.50;0.50;;;;;;;13.04;100.00;98762.94;5033731;28;20499;-94
2023/08/24 04:04:30;;;;;;;0.47;0.47;;;;;;;13.27;100.00;98794.19;5050907;28;20699;-84
2023/08/24 04:06:58;;;;;;;0.50;0.50;;;;;;;13.33;100.00;98799.38;5032512;28;20048;-84
2023/08/24 04:09:25;;;;;;;0.50;0.50;;;;;;;13.40;100.00;98799.94;5033104;28;20049;-87
2023/08/24 04:11:52;;;;;;;0.50;0.50;;;;;;;13.38;100.00;98795.88;5051475;28;20079;-83
2023/08/24 04:14:20;;;;;;;0.50;0.50;;;;;;;13.38;100.00;98791.25;5051526;28;20061;-91
2023/08/24 04:16:47;;;;;;;0.50;0.50;;;;;;;13.49;100.00;98807.53;5050624;28;20087;-87
2023/08/24 04:19:14;;;;;;;0.50;0.50;;;;;;;13.40;100.00;98783.69;5032608;28;20045;-89
2023/08/24 04:21:43;;;;;;;0.40;0.40;;;;;;;13.51;100.00;98805.38;5057855;28;20439;-87
2023/08/24 04:24:10;;;;;;;0.50;0.50;;;;;;;13.37;100.00;98791.53;5059407;28;20394;-88
2023/08/24 04:26:38;;;;;;;0.50;0.50;;;;;;;13.60;100.00;98820.03;5060511;28;20063;-91
2023/08/24 04:29:05;;;;;;;0.40;0.40;;;;;;;13.47;100.00;98801.56;5042974;28;20053;-92
2023/08/24 04:31:32;;;;;;;0.50;0.50;;;;;;;13.58;100.00;98804.03;5065129;28;20048;-89
2023/08/24 04:33:59;;;;;;;0.50;0.50;;;;;;;13.64;100.00;98815.69;5050313;28;20060;-84
2023/08/24 04:36:26;;;;;;;0.40;0.40;;;;;;;13.65;100.00;98815.44;5062560;28;20068;-82
2023/08/24 04:38:54;;;;;;;0.50;0.50;;;;;;;13.64;100.00;98799.44;5032440;28;20048;-85
2023/08/24 04:41:21;;;;;;;0.43;0.43;;;;;;;13.73;100.00;98803.25;5052318;28;20054;-86
2023/08/24 04:43:48;;;;;;;0.50;0.50;;;;;;;13.87;100.00;98806.22;5070146;28;20499;-85
2023/08/24 04:46:15;;;;;;;0.50;0.50;;;;;;;13.80;100.00;98789.41;5069764;28;20051;-86
2023/08/24 04:48:43;;;;;;;0.50;0.50;;;;;;;13.82;100.00;98789.94;5049146;28;20052;-86
2023/08/24 04:51:10;;;;;;;0.50;0.50;;;;;;;13.90;100.00;98792.13;5051147;28;20139;-85
2023/08/24 04:53:37;;;;;;;0.43;0.43;;;;;;;13.93;100.00;98796.22;5049234;28;20068;-90
2023/08/24 04:56:07;;;;;;;0.50;0.50;;;;;;;13.97;100.00;98791.84;5054272;28;20060;-87
2023/08/24 04:58:35;;;;;;;0.43;0.43;;;;;;;13.97;100.00;98792.66;5039250;28;20048;-86
2023/08/24 05:01:02;;;;;;;0.50;0.50;;;;;;;14.11;100.00;98798.38;5036228;28;20052;-88
2023/08/24 05:03:29;;;;;;;0.50;0.50;;;;;;;14.23;100.00;98812.47;5070364;28;20135;-87
2023/08/24 05:05:56;;;;;;;0.40;0.40;;;;;;;14.09;100.00;98795.91;5053347;28;20439;-90
2023/08/24 05:08:23;;;;;;;0.45;0.45;;;;;;;14.29;100.00;98814.09;5052385;28;20051;-87
2023/08/24 05:10:50;;;;;;;0.50;0.50;;;;;;;14.24;100.00;98789.66;5052922;28;20052;-87
2023/08/24 05:13:18;;;;;;;0.50;0.50;;;;;;;14.51;100.00;98812.97;5069683;28;20945;-86
2023/08/24 05:15:47;;;;;;;0.45;0.45;;;;;;;14.52;100.00;98814.59;5053726;28;20040;-94
2023/08/24 05:18:16;;;;;;;0.50;0.50;;;;;;;14.45;100.00;98782.28;5021836;28;20044;-92
2023/08/24 05:20:43;;;;;;;0.50;0.50;;;;;;;14.66;100.00;98802.09;5070417;28;20476;-88
2023/08/24 05:23:10;;;;;;;0.40;0.40;;;;;;;14.74;100.00;98812.38;5071699;28;20049;-93
2023/08/24 05:25:38;;;;;;;0.40;0.40;;;;;;;14.79;100.00;98813.47;5021801;28;20144;-92
2023/08/24 05:28:06;;;;;;;0.50;0.50;;;;;;;14.72;100.00;98792.03;5056651;28;20065;-92
2023/08/24 05:30:33;;;;;;;0.50;0.50;;;;;;;14.72;100.00;98784.69;5075811;28;20515;-91
2023/08/24 05:33:00;;;;;;;0.47;0.47;;;;;;;14.93;100.00;98804.44;5075662;28;20426;-93
2023/08/24 05:35:28;;;;;;;0.50;0.50;;;;;;;14.84;100.00;98783.56;5074840;28;20041;-91
2023/08/24 05:37:55;;;;;;;0.40;0.40;;;;;;;14.86;99.67;98792.25;5074495;28;20630;-92
2023/08/24 05:40:22;;;;;;;0.40;0.40;;;;;;;14.81;100.00;98794.97;5074910;28;20049;-92
2023/08/24 05:42:49;;;;;;;0.40;0.40;;;;;;;14.92;99.75;98815.59;5076094;28;20476;-91
2023/08/24 05:45:16;;;;;;;0.40;0.40;;;;;;;14.81;99.32;98794.97;5074431;28;20087;-92
2023/08/24 05:47:43;;;;;;;0.40;0.40;;;;;;;14.76;99.22;98795.78;5074953;28;20048;-93
2023/08/24 05:50:11;;;;;;;0.50;0.50;;;;;;;14.70;99.58;98788.78;5073872;28;20052;-91
2023/08/24 05:52:38;;;;;;;0.40;0.40;;;;;;;14.72;100.00;98798.28;5040255;28;20063;-94
2023/08/24 05:55:06;;;;;;;0.40;0.40;;;;;;;14.72;100.00;98806.41;5056093;28;20052;-93
2023/08/24 05:57:33;;;;;;;0.40;0.40;;;;;;;14.60;99.90;98808.63;5057062;28;20044;-92
2023/08/24 06:00:00;;;;;;;0.40;0.40;;;;;;;14.39;100.00;98785.31;5056673;28;20052;-93
2023/08/24 06:02:31;;;;;;;0.40;0.40;;;;;;;14.37;100.00;98793.72;5075210;28;20072;-94
2023/08/24 06:04:58;;;;;;;0.40;0.40;;;;;;;14.42;100.00;98792.88;5058372;28;20059;-94
2023/08/24 06:07:26;;;;;;;0.40;0.40;;;;;;;14.44;100.00;98791.53;5040918;28;20041;-93
2023/08/24 06:09:53;;;;;;;0.40;0.40;;;;;;;14.63;100.00;98816.22;5075801;28;20052;-92
2023/08/24 06:12:20;;;;;;;0.40;0.40;;;;;;;14.60;100.00;98805.91;5056217;28;20136;-91
2023/08/24 06:14:47;;;;;;;0.50;0.50;;;;;;;14.70;100.00;98796.91;5056085;28;20067;-91
2023/08/24 06:17:16;;;;;;;0.43;0.43;;;;;;;14.87;100.00;98800.13;5074043;28;20040;-92
2023/08/24 06:19:43;;;;;;;0.40;0.40;;;;;;;15.01;99.67;98813.91;5074911;28;20090;-92
2023/08/24 06:22:11;;;;;;;0.40;0.40;;;;;;;15.05;98.22;98800.59;5056420;28;20055;-92
2023/08/24 06:24:38;;;;;;;0.40;0.40;;;;;;;15.03;97.90;98797.34;5073778;28;20097;-92
2023/08/24 06:27:05;;;;;;;0.40;0.40;;;;;;;15.05;97.46;98825.88;5076339;28;20514;-92
2023/08/24 06:29:32;;;;;;;0.40;0.40;;;;;;;14.98;97.43;98822.63;5043011;28;20072;-93
2023/08/24 06:32:03;;;;;;;0.30;0.30;;;;;;;14.88;97.23;98801.72;5076248;28;20101;-92
2023/08/24 06:34:30;;;;;;;0.40;0.40;;;;;;;14.80;97.09;98809.66;5056021;28;20052;-91
2023/08/24 06:37:01;;;;;;;0.40;0.40;;;;;;;14.81;97.05;98819.41;5058515;28;20053;-93
2023/08/24 06:39:28;;;;;;;0.30;0.30;;;;;;;14.73;97.18;98816.19;5038771;28;20044;-94
2023/08/24 06:41:56;;;;;;;0.40;0.40;;;;;;;14.67;97.96;98817.28;5054375;28;20048;-92
2023/08/24 06:44:25;;;;;;;0.40;0.40;;;;;;;14.79;98.31;98829.78;5038452;28;20048;-91
2023/08/24 06:46:52;;;;;;;0.40;0.40;;;;;;;14.76;97.95;98830.31;5074605;28;20049;-93
2023/08/24 06:49:20;;;;;;;0.40;0.40;;;;;;;14.66;98.10;98836.56;5073014;28;20049;-91
2023/08/24 06:51:47;;;;;;;0.30;0.30;;;;;;;14.68;98.01;98828.97;5073405;28;20118;-92
2023/08/24 06:54:17;;;;;;;0.40;0.40;;;;;;;14.70;97.68;98833.03;5056656;28;20055;-92
2023/08/24 06:56:44;;;;;;;0.40;0.40;;;;;;;14.63;97.71;98853.41;5075111;28;20044;-92
2023/08/24 06:59:13;;;;;;;0.40;0.40;;;;;;;14.42;98.28;98825.47;5075779;28;20075;-91
2023/08/24 07:01:40;;;;;;;0.40;0.40;;;;;;;14.54;98.46;98850.47;5078403;28;20646;-92
2023/08/24 07:04:08;;;;;;;0.40;0.40;;;;;;;14.37;99.19;98844.47;5073224;28;20089;-92
2023/08/24 07:06:42;;;;;;;0.40;0.40;;;;;;;14.34;99.98;98845.03;5073289;28;20657;-92
2023/08/24 07:09:09;;;;;;;0.40;0.40;;;;;;;14.20;100.00;98832.00;5038056;28;20052;-91
2023/08/24 07:11:37;;;;;;;0.40;0.40;;;;;;;14.24;100.00;98849.38;5055652;28;20072;-90
2023/08/24 07:14:04;;;;;;;0.40;0.40;;;;;;;14.17;100.00;98854.25;5073127;28;20127;-90
2023/08/24 07:16:31;;;;;;;0.40;0.40;;;;;;;14.19;100.00;98852.09;5074184;28;20048;-91
2023/08/24 07:18:59;;;;;;;0.40;0.40;;;;;;;14.01;100.00;98858.06;5072768;28;20121;-91
2023/08/24 07:21:26;;;;;;;0.40;0.40;;;;;;;13.80;100.00;98841.78;5055466;28;20049;-91
2023/08/24 07:23:53;;;;;;;0.50;0.50;;;;;;;13.84;100.00;98869.16;5039658;28;20044;-91
2023/08/24 07:26:20;;;;;;;0.40;0.40;;;;;;;13.60;100.00;98847.97;5072754;28;20251;-92
2023/08/24 07:28:48;;;;;;;0.40;0.40;;;;;;;13.57;100.00;98863.94;5054859;28;20036;-90
2023/08/24 07:31:15;;;;;;;0.50;0.50;;;;;;;13.44;100.00;98852.53;5037485;28;20072;-92
2023/08/24 07:33:45;;;;;;;0.50;0.50;;;;;;;13.37;100.00;98854.69;5072964;28;20048;-91
2023/08/24 07:36:12;;;;;;;0.40;0.40;;;;;;;13.39;100.00;98857.13;5072363;28;20568;-91
2023/08/24 07:38:39;;;;;;;0.50;0.50;;;;;;;13.39;100.00;98874.22;5072633;28;20422;-91
2023/08/24 07:41:07;;;;;;;0.50;0.50;;;;;;;13.28;100.00;98866.31;5072140;28;20052;-91
2023/08/24 07:43:34;;;;;;;0.43;0.43;;;;;;;13.20;100.00;98859.47;5055100;28;20106;-92
2023/08/24 07:46:01;;;;;;;0.40;0.40;;;;;;;13.08;100.00;98851.56;5054381;28;20060;-91
2023/08/24 07:48:31;;;;;;;0.40;0.40;;;;;;;13.18;100.00;98881.41;5038757;28;20049;-91
2023/08/24 07:50:58;;;;;;;0.40;0.40;;;;;;;13.12;100.00;98889.78;5071945;28;20064;-90
2023/08/24 07:53:25;;;;;;;0.40;0.40;;;;;;;13.05;100.00;98891.91;5053251;28;20049;-91
2023/08/24 07:55:55;;;;;;;0.50;0.50;;;;;;;12.92;100.00;98877.75;5071943;28;20135;-90
2023/08/24 07:58:25;;;;;;;0.50;0.50;;;;;;;12.96;100.00;98889.72;5072652;28;20040;-90
2023/08/24 08:00:53;;;;;;;0.50;0.50;;;;;;;12.95;100.00;98889.97;5072279;28;20507;-90
2023/08/24 08:03:20;;;;;;;0.50;0.50;;;;;;;12.90;100.00;98885.34;5037781;28;20049;-90
2023/08/24 08:05:48;;;;;;;0.50;0.50;;;;;;;12.98;100.00;98894.84;5056387;28;20048;-91
2023/08/24 08:08:15;;;;;;;0.40;0.40;;;;;;;13.02;100.00;98902.19;5054310;28;20637;-90
2023/08/24 08:10:42;;;;;;;0.50;0.50;;;;;;;12.98;100.00;98879.41;5071692;28;20533;-91
2023/08/24 08:13:13;;;;;;;0.50;0.50;;;;;;;13.10;100.00;98883.81;5072125;28;20076;-90
2023/08/24 08:15:40;;;;;;;0.40;0.40;;;;;;;13.08;100.00;98889.47;5072028;28;20083;-90
2023/08/24 08:18:07;;;;;;;0.50;0.50;;;;;;;12.97;100.00;98890.53;5053737;28;20044;-92
2023/08/24 08:20:34;;;;;;;0.50;0.50;;;;;;;13.05;100.00;98900.84;5053284;28;20045;-89
2023/08/24 08:23:02;;;;;;;0.50;0.50;;;;;;;12.94;100.00;98888.34;5071684;28;20044;-89
2023/08/24 08:25:29;;;;;;;0.50;0.50;;;;;;;13.08;100.00;98900.31;5071864;28;20125;-90
2023/08/24 08:27:58;;;;;;;0.50;0.50;;;;;;;12.99;100.00;98878.34;5053255;28;20048;-89
2023/08/24 08:30:25;;;;;;;0.50;0.50;;;;;;;13.15;100.00;98898.19;5052947;28;20083;-89
2023/08/24 08:32:53;;;;;;;0.50;0.50;;;;;;;13.27;100.00;98902.59;5071892;28;20052;-90
2023/08/24 08:35:22;;;;;;;0.50;0.50;;;;;;;13.15;100.00;98890.06;5055502;28;20071;-89
2023/08/24 08:37:50;;;;;;;0.52;0.52;;;;;;;13.02;100.00;98885.94;5056534;28;20044;-88
2023/08/24 08:40:29;;;;;;;0.50;0.50;;;;;;;13.04;100.00;98893.81;5039819;28;20495;-89
2023/08/24 08:42:58;;;;;;;0.50;0.50;;;;;;;13.11;100.00;98902.50;5070991;28;20473;-88
2023/08/24 08:45:26;;;;;;;0.50;0.50;;;;;;;13.09;100.00;98893.00;5053620;28;20044;-88
2023/08/24 08:47:56;;;;;;;0.50;0.50;;;;;;;13.23;100.00;98896.88;5052843;28;20135;-91
2023/08/24 08:50:24;;;;;;;0.50;0.50;;;;;;;13.18;100.00;98905.78;5037426;28;20481;-88
2023/08/24 08:52:51;;;;;;;0.40;0.40;;;;;;;13.13;100.00;98907.66;5054228;28;20427;-89
2023/08/24 08:55:19;;;;;;;0.50;0.50;;;;;;;13.11;100.00;98912.53;5053428;28;20045;-88
2023/08/24 08:57:48;;;;;;;0.50;0.50;;;;;;;13.06;100.00;98909.78;5070796;28;20068;-88
2023/08/24 09:00:16;;;;;;;0.47;0.47;;;;;;;12.98;100.00;98908.41;5052878;28;20052;-88
2023/08/24 09:02:45;;;;;;;0.50;0.50;;;;;;;12.87;100.00;98885.06;5070868;28;20051;-88
2023/08/24 09:05:13;;;;;;;0.47;0.47;;;;;;;12.86;100.00;98884.22;5052523;28;20082;-87
2023/08/24 09:07:41;;;;;;;0.50;0.50;;;;;;;12.97;100.00;98910.28;5036572;28;20067;-87
2023/08/24 09:10:09;;;;;;;0.40;0.40;;;;;;;12.87;100.00;98904.81;5072499;28;20098;-87
2023/08/24 09:12:37;;;;;;;0.50;0.50;;;;;;;13.12;100.00;98911.47;5052879;28;20049;-87
2023/08/24 09:15:06;;;;;;;0.50;0.50;;;;;;;13.31;100.00;98928.09;5070880;28;20505;-86
2023/08/24 09:17:33;;;;;;;0.50;0.50;;;;;;;13.28;100.00;98918.59;5053604;28;20129;-88
2023/08/24 09:20:07;;;;;;;0.52;0.52;;;;;;;13.28;100.00;98915.09;5072453;28;20053;-88
2023/08/24 09:22:41;;;;;;;0.50;0.50;;;;;;;13.22;100.00;98908.81;5071759;28;20082;-87
2023/08/24 09:25:11;;;;;;;0.50;0.50;;;;;;;13.36;100.00;98918.09;5052575;28;20060;-87
2023/08/24 09:27:38;;;;;;;0.50;0.50;;;;;;;13.23;100.00;98913.94;5052908;28;20049;-88
2023/08/24 09:30:07;;;;;;;0.60;0.60;;;;;;;13.29;100.00;98920.22;5036618;28;20057;-87
2023/08/24 09:32:34;;;;;;;0.50;0.50;;;;;;;13.34;100.00;98924.84;5071454;28;20055;-87
2023/08/24 09:35:09;;;;;;;0.50;0.50;;;;;;;13.34;100.00;98919.44;5071454;28;20204;-88
2023/08/24 09:37:36;;;;;;;;;;;;;;;13.29;100.00;98927.53;5054240;28;20048;-87
2023/08/24 09:40:08;;;;;;;0.60;0.60;;;;;;;13.12;100.00;98909.56;5052249;28;20312;-88
2023/08/24 09:42:41;;;;;;;0.50;0.50;;;;;;;13.22;100.00;98914.22;5054240;28;20041;-88
2023/08/24 09:45:13;;;;;;;0.50;0.50;;;;;;;13.31;100.00;98926.19;5070016;28;20458;-87
2023/08/24 09:47:52;;;;;;;0.50;0.50;;;;;;;13.34;100.00;98920.28;5070700;28;20056;-88
2023/08/24 09:50:25;;;;;;;0.50;0.50;;;;;;;13.51;100.00;98927.38;5069348;28;20550;-88
2023/08/24 09:52:53;;;;;;;0.50;0.50;;;;;;;13.48;100.00;98907.03;5052527;28;20045;-87
2023/08/24 09:55:22;;;;;;;0.50;0.50;;;;;;;13.62;100.00;98921.72;5060296;28;20059;-87
2023/08/24 09:57:53;;;;;;;0.60;0.60;;;;;;;13.79;100.00;98928.81;5066865;28;20048;-89
2023/08/24 10:00:24;;;;;;;0.60;0.60;;;;;;;13.70;100.00;98917.69;5079491;28;20051;-87
2023/08/24 10:02:53;;;;;;;0.50;0.50;;;;;;;13.69;100.00;98932.31;5070322;28;20060;-87
2023/08/24 10:05:24;;;;;;;0.50;0.50;;;;;;;13.58;100.00;98930.66;5069970;28;20053;-88
2023/08/24 10:08:09;;;;;;;0.50;0.50;;;;;;;13.52;100.00;98929.00;5070183;28;20044;-89
2023/08/24 10:10:37;;;;;;;0.50;0.50;;;;;;;13.33;100.00;98920.53;5070944;28;20073;-88
2023/08/24 10:13:10;;;;;;;0.50;0.50;;;;;;;13.22;100.00;98928.59;5052789;28;20052;-88
2023/08/24 10:15:46;;;;;;;0.40;0.40;;;;;;;13.13;100.00;98929.34;5054662;28;20462;-88
2023/08/24 10:18:16;;;;;;;0.40;0.40;;;;;;;13.17;100.00;98933.16;5057107;28;20052;-88
2023/08/24 10:20:45;;;;;;;0.40;0.40;;;;;;;13.28;100.00;98942.19;5073210;28;20419;-87
2023/08/24 10:23:15;;;;;;;0.50;0.50;;;;;;;13.22;100.00;98938.63;5054773;28;20067;-88
2023/08/24 10:25:44;;;;;;;0.40;0.40;;;;;;;13.10;100.00;98933.38;5039111;28;20054;-89
2023/08/24 10:28:13;;;;;;;0.40;0.40;;;;;;;13.23;100.00;98942.94;5055119;28;20386;-88
2023/08/24 10:30:43;;;;;;;0.40;0.40;;;;;;;13.19;100.00;98933.69;5074267;28;20533;-89
2023/08/24 10:33:12;;;;;;;0.50;0.50;;;;;;;13.07;100.00;98930.41;5057079;28;20055;-88
2023/08/24 10:35:40;;;;;;;0.50;0.50;;;;;;;13.22;100.00;98933.19;5056274;28;20052;-87
2023/08/24 10:38:07;;;;;;;0.43;0.43;;;;;;;13.33;100.00;98944.91;5056642;28;20071;-87
2023/08/24 10:40:36;;;;;;;0.50;0.50;;;;;;;13.29;100.00;98939.19;5077927;28;20546;-89
2023/08/24 10:43:05;;;;;;;0.50;0.50;;;;;;;13.27;100.00;98943.25;5041078;28;20499;-88
2023/08/24 10:46:03;;;;;;;0.50;0.50;;;;;;;13.30;100.00;98946.25;5074450;28;20049;-88
2023/08/24 10:48:50;;;;;;;0.50;0.50;;;;;;;13.24;100.00;98944.56;5073359;28;20073;-88
2023/08/24 10:51:21;;;;;;;0.50;0.50;;;;;;;13.18;100.00;98929.38;5055785;28;20048;-89
2023/08/24 10:54:10;;;;;;;0.45;0.45;;;;;;;13.30;100.00;98953.59;5055126;28;20071;-88
2023/08/24 10:56:39;;;;;;;0.40;0.40;;;;;;;13.21;100.00;98951.31;5054969;28;20058;-88
2023/08/24 10:59:17;;;;;;;0.50;0.50;;;;;;;13.12;100.00;98938.56;5056522;28;20041;-88
2023/08/24 11:01:54;;;;;;;0.50;0.50;;;;;;;13.30;100.00;98957.09;5057040;28;20122;-89
2023/08/24 11:04:22;;;;;;;0.50;0.50;;;;;;;13.23;100.00;98932.91;5073965;28;20053;-89
2023/08/24 11:06:58;;;;;;;0.45;0.45;;;;;;;13.52;100.00;98951.53;5054989;28;20049;-88
2023/08/24 11:09:45;;;;;;;0.50;0.50;;;;;;;13.61;100.00;98943.69;5072646;28;20415;-89
2023/08/24 11:12:12;;;;;;;0.50;0.50;;;;;;;13.60;100.00;98937.44;5055388;28;20045;-90
2023/08/24 11:14:58;;;;;;;0.50;0.50;;;;;;;13.68;100.00;98935.31;5055319;28;20098;-89
2023/08/24 11:17:32;;;;;;;0.50;0.50;;;;;;;13.70;100.00;98936.66;5055694;28;20045;-89
2023/08/24 11:20:00;;;;;;;0.50;0.50;;;;;;;13.79;100.00;98950.50;5072910;28;20048;-89
2023/08/24 11:22:32;;;;;;;0.50;0.50;;;;;;;13.87;100.00;98947.28;5074365;28;20084;-91
2023/08/24 11:25:00;;;;;;;0.50;0.50;;;;;;;14.15;100.00;98950.59;5055828;28;20048;-90
2023/08/24 11:27:28;;;;;;;0.60;0.60;;;;;;;14.60;100.00;98944.41;5071304;28;20525;-90
2023/08/24 11:30:01;;;;;;;0.70;0.70;;;;;;;15.74;100.00;98948.50;5071979;28;20048;-90
2023/08/24 11:32:31;;;;;;;0.60;0.60;;;;;;;16.34;99.97;98921.97;5072190;28;20056;-90
2023/08/24 11:34:58;;;;;;;0.68;0.68;;;;;;;17.55;93.26;98942.06;5039413;28;20068;-91